createdAt,value
2017-08-19T00:01:13.869Z,12.90
2017-08-19T00:03:41.430Z,12.90
2017-08-19T00:06:08.977Z,12.90
2017-08-19T00:08:36.839Z,12.90
2017-08-19T00:11:04.396Z,12.80
2017-08-19T00:13:31.953Z,12.80
2017-08-19T00:15:59.521Z,12.70
2017-08-19T00:18:27.072Z,12.70
2017-08-19T00:20:54.645Z,12.70
2017-08-19T00:23:22.186Z,12.70
2017-08-19T00:25:49.746Z,12.60
2017-08-19T00:28:17.685Z,12.70
2017-08-19T00:30:45.245Z,12.60
2017-08-19T00:33:12.796Z,12.60
2017-08-19T00:35:40.373Z,12.70
2017-08-19T00:38:07.930Z,12.60
2017-08-19T00:40:35.529Z,12.60
2017-08-19T00:43:03.496Z,12.60
2017-08-19T00:45:31.067Z,12.60
2017-08-19T00:47:58.831Z,12.70
2017-08-19T00:50:26.399Z,12.60
2017-08-19T00:52:53.969Z,12.50
2017-08-19T00:55:21.613Z,12.50
2017-08-19T00:57:49.202Z,12.50
2017-08-19T01:00:16.759Z,12.40
2017-08-19T01:02:44.326Z,12.40
2017-08-19T01:05:11.896Z,12.30
2017-08-19T01:07:39.444Z,12.30
2017-08-19T01:10:06.982Z,12.20
2017-08-19T01:12:34.536Z,12.10
2017-08-19T01:15:02.129Z,12.20
2017-08-19T01:17:29.689Z,12.20
2017-08-19T01:19:57.237Z,12.20
2017-08-19T01:22:24.808Z,12.20
2017-08-19T01:24:52.409Z,12.10
2017-08-19T01:27:20.008Z,12.10
2017-08-19T01:29:47.575Z,12.00
2017-08-19T01:32:15.158Z,12.00
2017-08-19T01:34:43.464Z,11.90
2017-08-19T01:37:11.300Z,11.90
2017-08-19T01:39:38.828Z,11.90
2017-08-19T01:42:06.386Z,11.90
2017-08-19T01:44:33.969Z,11.80
2017-08-19T01:47:02.275Z,11.80
2017-08-19T01:49:29.851Z,11.80
2017-08-19T01:51:57.495Z,11.80
2017-08-19T01:54:25.069Z,11.80
2017-08-19T01:56:52.620Z,11.80
2017-08-19T01:59:20.193Z,11.70
2017-08-19T02:01:47.752Z,11.70
2017-08-19T02:04:15.295Z,11.70
2017-08-19T02:06:42.865Z,11.70
2017-08-19T02:09:10.404Z,11.70
2017-08-19T02:11:37.957Z,11.60
2017-08-19T02:14:05.505Z,11.60
2017-08-19T02:16:33.091Z,11.60
2017-08-19T02:19:00.722Z,11.60
2017-08-19T02:21:29.053Z,11.50
2017-08-19T02:23:56.604Z,11.50
2017-08-19T02:26:24.172Z,11.50
2017-08-19T02:28:51.719Z,11.50
2017-08-19T02:31:19.581Z,11.40
2017-08-19T02:33:47.138Z,11.40
2017-08-19T02:36:14.696Z,11.40
2017-08-19T02:38:42.273Z,11.40
2017-08-19T02:41:09.839Z,11.40
2017-08-19T02:43:37.356Z,11.30
2017-08-19T02:46:04.916Z,11.30
2017-08-19T02:48:32.469Z,11.30
2017-08-19T02:51:01.137Z,11.30
2017-08-19T02:53:28.682Z,11.20
2017-08-19T02:55:56.223Z,11.30
2017-08-19T02:58:23.761Z,11.30
2017-08-19T03:00:51.303Z,11.30
2017-08-19T03:03:18.879Z,11.20
2017-08-19T03:05:46.414Z,11.20
2017-08-19T03:08:13.964Z,11.20
2017-08-19T03:10:41.532Z,11.10
2017-08-19T03:13:09.092Z,11.10
2017-08-19T03:15:36.640Z,11.10
2017-08-19T03:18:04.184Z,10.90
2017-08-19T03:20:32.590Z,10.90
2017-08-19T03:23:00.186Z,10.80
2017-08-19T03:25:27.727Z,10.70
2017-08-19T03:27:55.294Z,10.70
2017-08-19T03:30:22.851Z,10.70
2017-08-19T03:32:50.770Z,10.70
2017-08-19T03:35:18.302Z,10.70
2017-08-19T03:37:45.818Z,10.70
2017-08-19T03:40:13.381Z,10.70
2017-08-19T03:42:40.945Z,10.70
2017-08-19T03:45:08.531Z,10.80
2017-08-19T03:47:36.054Z,10.80
2017-08-19T03:50:03.646Z,10.80
2017-08-19T03:52:31.185Z,10.90
2017-08-19T03:54:58.741Z,10.90
2017-08-19T03:57:26.296Z,10.90
2017-08-19T03:59:53.837Z,10.90
2017-08-19T04:02:21.436Z,10.90
2017-08-19T04:04:48.987Z,10.80
2017-08-19T04:07:16.538Z,10.80
2017-08-19T04:09:44.095Z,10.80
2017-08-19T04:12:11.621Z,10.80
2017-08-19T04:14:39.169Z,10.80
2017-08-19T04:17:06.700Z,10.80
2017-08-19T04:19:34.238Z,10.80
2017-08-19T04:22:01.758Z,10.80
2017-08-19T04:24:29.401Z,10.70
2017-08-19T04:26:56.965Z,10.70
2017-08-19T04:29:24.507Z,11.20
2017-08-19T04:31:52.059Z,10.60
2017-08-19T04:34:19.677Z,10.50
2017-08-19T04:36:47.255Z,10.50
2017-08-19T04:39:14.796Z,10.60
2017-08-19T04:41:42.622Z,10.50
2017-08-19T04:44:10.164Z,10.40
2017-08-19T04:46:37.734Z,10.40
2017-08-19T04:49:05.281Z,10.20
2017-08-19T04:51:32.836Z,10.10
2017-08-19T04:54:00.524Z,10.10
2017-08-19T04:56:28.059Z,10.10
2017-08-19T04:58:55.620Z,10.10
2017-08-19T05:01:24.047Z,10.20
2017-08-19T05:03:51.598Z,10.30
2017-08-19T05:06:19.162Z,10.40
2017-08-19T05:08:46.743Z,10.40
2017-08-19T05:11:14.305Z,10.50
2017-08-19T05:13:41.837Z,10.60
2017-08-19T05:16:10.342Z,10.70
2017-08-19T05:18:37.903Z,10.80
2017-08-19T05:21:05.472Z,10.80
2017-08-19T05:23:33.033Z,10.80
2017-08-19T05:26:00.581Z,10.90
2017-08-19T05:28:28.148Z,10.90
2017-08-19T05:30:55.698Z,11.10
2017-08-19T05:33:23.262Z,11.30
2017-08-19T05:35:50.835Z,11.30
2017-08-19T05:38:18.380Z,11.40
2017-08-19T05:40:45.967Z,11.50
2017-08-19T05:43:13.546Z,11.60
2017-08-19T05:45:41.106Z,11.90
2017-08-19T05:48:08.641Z,12.10
2017-08-19T05:50:36.739Z,12.40
2017-08-19T05:53:04.272Z,12.40
2017-08-19T05:55:31.813Z,12.40
2017-08-19T05:57:59.366Z,12.30
2017-08-19T06:00:26.901Z,12.20
2017-08-19T06:02:55.294Z,12.20
2017-08-19T06:05:22.880Z,12.20
2017-08-19T06:07:50.441Z,12.30
2017-08-19T06:10:18.011Z,12.40
2017-08-19T06:12:45.578Z,12.50
2017-08-19T06:15:13.155Z,12.70
2017-08-19T06:17:40.712Z,12.70
2017-08-19T06:20:08.269Z,12.70
2017-08-19T06:22:35.807Z,12.60
2017-08-19T06:25:03.371Z,12.60
2017-08-19T06:27:30.922Z,12.60
2017-08-19T06:29:58.482Z,12.60
2017-08-19T06:32:26.052Z,12.60
2017-08-19T06:34:53.597Z,12.70
2017-08-19T06:37:21.164Z,12.80
2017-08-19T06:39:48.723Z,12.90
2017-08-19T06:42:16.276Z,12.80
2017-08-19T06:44:43.848Z,12.90
2017-08-19T06:47:11.422Z,13.00
2017-08-19T06:49:38.986Z,13.00
2017-08-19T06:52:06.557Z,13.10
2017-08-19T06:54:34.085Z,13.50
2017-08-19T06:57:01.639Z,14.10
2017-08-19T06:59:31.491Z,14.80
2017-08-19T07:01:59.960Z,15.20
2017-08-19T07:04:27.614Z,15.80
2017-08-19T07:06:56.329Z,16.20
2017-08-19T07:09:24.024Z,16.30
2017-08-19T07:11:51.828Z,16.10
2017-08-19T07:14:19.721Z,15.90
2017-08-19T07:16:47.343Z,16.10
2017-08-19T07:19:15.037Z,15.40
2017-08-19T07:21:42.627Z,15.70
2017-08-19T07:24:10.191Z,15.80
2017-08-19T07:26:37.818Z,15.80
2017-08-19T07:29:05.446Z,15.90
2017-08-19T07:31:33.083Z,16.00
2017-08-19T07:34:00.705Z,16.00
2017-08-19T07:36:28.310Z,16.00
2017-08-19T07:38:55.890Z,15.90
2017-08-19T07:41:23.428Z,16.20
2017-08-19T07:43:51.011Z,16.40
2017-08-19T07:46:18.552Z,16.50
2017-08-19T07:48:46.120Z,16.60
2017-08-19T07:51:13.712Z,16.40
2017-08-19T07:53:41.276Z,16.40
2017-08-19T07:56:08.849Z,16.30
2017-08-19T07:58:37.213Z,16.10
2017-08-19T08:01:04.769Z,16.10
2017-08-19T08:03:32.324Z,16.00
2017-08-19T08:06:00.410Z,16.00
2017-08-19T08:08:27.983Z,16.10
2017-08-19T08:10:55.575Z,16.20
2017-08-19T08:13:23.190Z,16.40
2017-08-19T08:15:50.763Z,16.40
2017-08-19T08:18:18.318Z,16.40
2017-08-19T08:20:45.881Z,16.50
2017-08-19T08:23:13.461Z,16.60
2017-08-19T08:25:41.007Z,16.60
2017-08-19T08:28:08.607Z,16.60
2017-08-19T08:30:36.187Z,16.60
2017-08-19T08:33:03.736Z,16.40
2017-08-19T08:35:31.288Z,16.40
2017-08-19T08:37:58.930Z,16.50
2017-08-19T08:40:26.913Z,16.50
2017-08-19T08:42:54.519Z,16.30
2017-08-19T08:45:22.070Z,16.10
2017-08-19T08:47:49.639Z,16.00
2017-08-19T08:50:17.219Z,16.20
2017-08-19T08:52:44.774Z,16.40
2017-08-19T08:55:12.327Z,16.60
2017-08-19T08:57:40.291Z,16.60
2017-08-19T09:00:08.607Z,16.60
2017-08-19T09:02:36.145Z,16.60
2017-08-19T09:05:03.696Z,16.70
2017-08-19T09:07:31.247Z,16.70
2017-08-19T09:09:58.804Z,16.80
2017-08-19T09:12:26.356Z,17.10
2017-08-19T09:14:53.919Z,17.40
2017-08-19T09:17:21.486Z,17.50
2017-08-19T09:19:49.053Z,17.60
2017-08-19T09:22:17.392Z,17.80
2017-08-19T09:24:44.956Z,17.80
2017-08-19T09:27:12.516Z,17.90
2017-08-19T09:29:40.108Z,18.00
2017-08-19T09:32:08.728Z,18.30
2017-08-19T09:34:36.288Z,18.30
2017-08-19T09:37:03.843Z,18.30
2017-08-19T09:39:31.444Z,18.20
2017-08-19T09:41:58.986Z,18.10
2017-08-19T09:44:26.569Z,18.10
2017-08-19T09:46:54.136Z,17.90
2017-08-19T09:49:21.704Z,18.10
2017-08-19T09:51:49.275Z,18.20
2017-08-19T09:54:16.901Z,18.30
2017-08-19T09:56:45.357Z,18.50
2017-08-19T09:59:12.975Z,18.40
2017-08-19T10:01:40.548Z,18.00
2017-08-19T10:04:08.135Z,17.70
2017-08-19T10:06:36.124Z,17.40
2017-08-19T10:09:15.416Z,17.10
2017-08-19T10:11:43.031Z,17.10
2017-08-19T10:14:11.362Z,17.60
2017-08-19T10:16:38.911Z,17.60
2017-08-19T10:19:06.496Z,17.90
2017-08-19T10:21:34.037Z,18.20
2017-08-19T10:24:01.609Z,18.20
2017-08-19T10:26:29.188Z,18.00
2017-08-19T10:28:56.758Z,17.70
2017-08-19T10:31:24.335Z,17.30
2017-08-19T10:33:52.679Z,17.00
2017-08-19T10:36:20.269Z,17.00
2017-08-19T10:38:47.823Z,16.80
2017-08-19T10:41:15.755Z,16.70
2017-08-19T10:43:43.314Z,16.70
2017-08-19T10:46:10.853Z,16.80
2017-08-19T10:48:38.432Z,17.00
2017-08-19T10:51:05.977Z,17.20
2017-08-19T10:53:33.534Z,17.20
2017-08-19T10:56:01.085Z,17.20
2017-08-19T10:58:28.653Z,17.20
2017-08-19T11:00:56.226Z,17.10
2017-08-19T11:03:23.879Z,17.20
2017-08-19T11:05:51.459Z,17.50
2017-08-19T11:08:19.017Z,17.90
2017-08-19T11:10:46.583Z,18.00
2017-08-19T11:13:14.150Z,17.90
2017-08-19T11:15:41.982Z,18.10
2017-08-19T11:18:09.639Z,18.20
2017-08-19T11:20:37.196Z,18.00
2017-08-19T11:23:04.747Z,18.00
2017-08-19T11:25:32.302Z,18.00
2017-08-19T11:28:00.697Z,17.80
2017-08-19T11:30:28.260Z,17.80
2017-08-19T11:32:56.090Z,17.70
2017-08-19T11:35:23.637Z,18.00
2017-08-19T11:37:51.189Z,18.50
2017-08-19T11:40:18.892Z,18.50
2017-08-19T11:42:46.516Z,18.40
2017-08-19T11:45:14.098Z,18.30
2017-08-19T11:47:41.662Z,18.20
2017-08-19T11:50:09.433Z,18.10
2017-08-19T11:52:37.023Z,18.10
2017-08-19T11:55:04.596Z,18.20
2017-08-19T11:57:32.180Z,18.20
2017-08-19T11:59:59.873Z,18.30
2017-08-19T12:02:27.498Z,18.30
2017-08-19T12:04:55.040Z,18.20
2017-08-19T12:07:23.026Z,21.60
2017-08-19T12:09:50.564Z,18.30
2017-08-19T12:12:18.124Z,18.60
2017-08-19T12:14:45.683Z,18.70
2017-08-19T12:17:13.239Z,18.90
2017-08-19T12:19:40.809Z,19.00
2017-08-19T12:22:08.520Z,19.10
2017-08-19T12:24:36.486Z,19.10
2017-08-19T12:27:04.128Z,19.10
2017-08-19T12:29:31.695Z,19.30
2017-08-19T12:31:59.329Z,19.10
2017-08-19T12:34:26.947Z,18.80
2017-08-19T12:36:54.534Z,18.60
2017-08-19T12:39:22.119Z,18.60
2017-08-19T12:41:50.114Z,18.60
2017-08-19T12:44:17.665Z,18.60
2017-08-19T12:46:45.283Z,18.50
2017-08-19T12:49:12.905Z,18.30
2017-08-19T12:51:40.453Z,18.20
2017-08-19T12:54:08.077Z,18.20
2017-08-19T12:56:35.702Z,18.50
2017-08-19T12:59:03.560Z,18.60
2017-08-19T13:01:31.185Z,18.70
2017-08-19T13:03:59.532Z,18.70
2017-08-19T13:06:27.099Z,18.60
2017-08-19T13:08:54.631Z,18.80
2017-08-19T13:11:22.185Z,18.80
2017-08-19T13:13:49.733Z,18.80
2017-08-19T13:16:17.367Z,18.80
2017-08-19T13:18:45.525Z,18.60
2017-08-19T13:21:13.224Z,18.30
2017-08-19T13:23:40.874Z,18.30
2017-08-19T13:26:08.771Z,18.70
2017-08-19T13:28:36.366Z,19.20
2017-08-19T13:31:04.241Z,19.80
2017-08-19T13:33:31.876Z,20.30
2017-08-19T13:35:59.468Z,20.80
2017-08-19T13:38:27.018Z,21.00
2017-08-19T13:40:54.867Z,21.20
2017-08-19T13:43:22.424Z,21.30
2017-08-19T13:45:49.975Z,21.40
2017-08-19T13:48:17.546Z,21.70
2017-08-19T13:50:45.096Z,22.00
2017-08-19T13:53:12.657Z,22.50
2017-08-19T13:55:40.214Z,22.60
2017-08-19T13:58:08.213Z,23.00
2017-08-19T14:00:35.793Z,23.00
2017-08-19T14:03:03.327Z,23.00
2017-08-19T14:05:30.901Z,22.90
2017-08-19T14:07:58.449Z,23.00
2017-08-19T14:10:26.033Z,22.70
2017-08-19T14:13:01.836Z,22.20
2017-08-19T14:15:29.655Z,21.90
2017-08-19T14:17:57.209Z,21.70
2017-08-19T14:20:24.786Z,22.40
2017-08-19T14:22:52.340Z,23.00
2017-08-19T14:25:20.823Z,22.30
2017-08-19T14:27:48.374Z,22.40
2017-08-19T14:30:15.943Z,22.70
2017-08-19T14:32:43.536Z,23.40
2017-08-19T14:35:11.074Z,23.70
2017-08-19T14:37:38.647Z,23.80
2017-08-19T14:40:06.231Z,23.70
2017-08-19T14:42:33.797Z,23.20
2017-08-19T14:45:01.349Z,22.40
2017-08-19T14:47:29.027Z,22.40
2017-08-19T14:49:56.596Z,22.30
2017-08-19T14:52:24.170Z,21.70
2017-08-19T14:54:51.903Z,21.30
2017-08-19T14:57:19.480Z,21.70
2017-08-19T14:59:47.072Z,21.50
2017-08-19T15:02:14.749Z,20.60
2017-08-19T15:04:42.319Z,20.00
2017-08-19T15:07:09.899Z,19.50
2017-08-19T15:09:37.482Z,19.90
2017-08-19T15:12:05.820Z,22.20
2017-08-19T15:14:33.400Z,22.10
2017-08-19T15:17:01.095Z,22.60
2017-08-19T15:19:29.463Z,23.30
2017-08-19T15:21:57.035Z,23.30
2017-08-19T15:24:25.475Z,22.70
2017-08-19T15:26:53.020Z,22.70
2017-08-19T15:29:20.615Z,22.20
2017-08-19T15:31:48.276Z,21.80
2017-08-19T15:34:16.658Z,21.10
2017-08-19T15:36:44.255Z,21.10
2017-08-19T15:39:11.866Z,21.10
2017-08-19T15:41:39.766Z,21.40
2017-08-19T15:44:07.391Z,21.90
2017-08-19T15:46:34.922Z,22.40
2017-08-19T15:49:02.489Z,22.20
2017-08-19T15:51:30.053Z,22.00
2017-08-19T15:53:57.648Z,21.70
2017-08-19T15:56:25.295Z,20.70
2017-08-19T15:58:52.881Z,20.00
2017-08-19T16:01:20.450Z,19.70
2017-08-19T16:03:48.031Z,19.60
2017-08-19T16:06:15.620Z,19.50
2017-08-19T16:08:43.178Z,19.60
2017-08-19T16:11:11.100Z,19.80
2017-08-19T16:13:38.657Z,19.60
2017-08-19T16:16:06.231Z,19.40
2017-08-19T16:18:34.793Z,19.40
2017-08-19T16:21:02.361Z,19.70
2017-08-19T16:23:30.007Z,19.70
2017-08-19T16:25:58.358Z,20.30
2017-08-19T16:28:26.385Z,20.30
2017-08-19T16:30:53.946Z,20.50
2017-08-19T16:33:21.513Z,20.20
2017-08-19T16:35:49.080Z,19.70
2017-08-19T16:38:16.714Z,19.20
2017-08-19T16:40:45.206Z,18.70
2017-08-19T16:43:12.865Z,18.50
2017-08-19T16:45:40.525Z,18.20
2017-08-19T16:48:08.169Z,18.00
2017-08-19T16:50:35.839Z,17.80
2017-08-19T16:53:03.499Z,17.70
2017-08-19T16:55:31.082Z,17.60
2017-08-19T16:57:58.767Z,17.50
2017-08-19T17:00:26.410Z,17.40
2017-08-19T17:02:54.633Z,17.30
2017-08-19T17:05:22.277Z,17.20
2017-08-19T17:07:49.892Z,16.70
2017-08-19T17:10:17.565Z,16.20
2017-08-19T17:12:45.272Z,15.70
2017-08-19T17:15:12.977Z,15.40
2017-08-19T17:17:40.636Z,15.20
2017-08-19T17:20:08.587Z,15.00
2017-08-19T17:22:36.193Z,14.80
2017-08-19T17:25:03.903Z,14.80
2017-08-19T17:27:31.999Z,14.80
2017-08-19T17:29:59.949Z,14.90
2017-08-19T17:32:27.718Z,14.90
2017-08-19T17:34:55.410Z,14.90
2017-08-19T17:37:23.437Z,15.00
2017-08-19T17:39:51.130Z,15.00
2017-08-19T17:42:18.796Z,15.10
2017-08-19T17:44:46.462Z,15.10
2017-08-19T17:47:14.451Z,15.30
2017-08-19T17:49:42.133Z,15.30
2017-08-19T17:52:09.828Z,15.30
2017-08-19T17:54:37.509Z,15.30
2017-08-19T17:57:05.157Z,15.20
2017-08-19T17:59:32.823Z,15.20
2017-08-19T18:02:00.512Z,15.30
2017-08-19T18:04:28.130Z,15.30
2017-08-19T18:06:56.376Z,15.20
2017-08-19T18:09:25.037Z,15.20
2017-08-19T18:11:53.598Z,15.20
2017-08-19T18:14:21.428Z,15.10
2017-08-19T18:16:49.126Z,15.20
2017-08-19T18:19:16.805Z,15.20
2017-08-19T18:21:44.480Z,15.10
2017-08-19T18:24:13.251Z,15.20
2017-08-19T18:26:40.843Z,15.20
2017-08-19T18:29:08.542Z,15.10
2017-08-19T18:31:36.115Z,15.10
2017-08-19T18:34:03.686Z,15.10
2017-08-19T18:36:31.569Z,15.10
2017-08-19T18:38:59.124Z,15.00
2017-08-19T18:41:26.693Z,15.00
2017-08-19T18:43:54.289Z,15.00
2017-08-19T18:46:21.849Z,14.90
2017-08-19T18:48:49.442Z,14.80
2017-08-19T18:51:17.064Z,14.70
2017-08-19T18:53:48.154Z,14.70
2017-08-19T18:56:16.134Z,14.50
2017-08-19T18:58:43.703Z,14.50
2017-08-19T19:01:11.356Z,14.50
2017-08-19T19:03:39.054Z,14.40
2017-08-19T19:06:06.752Z,14.40
2017-08-19T19:08:34.449Z,14.30
2017-08-19T19:11:02.399Z,14.20
2017-08-19T19:13:30.165Z,14.20
2017-08-19T19:15:57.734Z,14.10
2017-08-19T19:18:25.525Z,14.10
2017-08-19T19:20:53.207Z,14.10
2017-08-19T19:23:21.142Z,14.10
2017-08-19T19:25:48.789Z,14.00
2017-08-19T19:28:16.461Z,14.00
2017-08-19T19:30:44.275Z,13.90
2017-08-19T19:33:11.865Z,15.50
2017-08-19T19:35:39.572Z,13.90
2017-08-19T19:38:07.251Z,13.70
2017-08-19T19:40:35.125Z,13.70
2017-08-19T19:43:05.293Z,13.60
2017-08-19T19:45:34.055Z,13.50
2017-08-19T19:48:01.762Z,13.60
2017-08-19T19:50:29.473Z,13.50
2017-08-19T19:52:57.303Z,13.60
2017-08-19T19:55:27.909Z,13.50
2017-08-19T19:57:55.991Z,13.50
2017-08-19T20:00:24.589Z,13.50
2017-08-19T20:02:52.329Z,13.50
2017-08-19T20:05:19.974Z,13.50
2017-08-19T20:07:50.618Z,13.40
2017-08-19T20:10:18.685Z,13.40
2017-08-19T20:12:46.475Z,13.40
2017-08-19T20:15:14.324Z,13.40
2017-08-19T20:17:42.745Z,13.50
2017-08-19T20:20:10.446Z,13.30
2017-08-19T20:22:38.311Z,13.40
2017-08-19T20:25:06.063Z,13.40
2017-08-19T20:27:33.723Z,13.40
2017-08-19T20:30:01.460Z,13.40
2017-08-19T20:32:29.193Z,13.40
2017-08-19T20:34:56.847Z,13.30
2017-08-19T20:37:24.468Z,13.30
2017-08-19T20:39:52.361Z,13.30
2017-08-19T20:42:20.040Z,13.40
2017-08-19T20:44:47.692Z,13.30
2017-08-19T20:47:15.334Z,13.30
2017-08-19T20:49:43.093Z,13.30
2017-08-19T20:52:10.702Z,13.20
2017-08-19T20:54:38.451Z,13.30
2017-08-19T20:57:06.689Z,13.10
2017-08-19T20:59:34.254Z,13.10
2017-08-19T21:02:02.352Z,14.50
2017-08-19T21:04:30.079Z,13.10
2017-08-19T21:06:57.767Z,13.00
2017-08-19T21:09:25.468Z,13.00
2017-08-19T21:11:53.090Z,13.00
2017-08-19T21:14:20.867Z,13.00
2017-08-19T21:16:48.505Z,12.90
2017-08-19T21:19:16.133Z,12.90
2017-08-19T21:21:43.789Z,12.80
2017-08-19T21:24:11.414Z,12.90
2017-08-19T21:26:39.039Z,12.80
2017-08-19T21:29:06.721Z,12.80
2017-08-19T21:31:34.659Z,12.70
2017-08-19T21:34:02.286Z,12.70
2017-08-19T21:36:30.801Z,12.70
2017-08-19T21:38:58.435Z,12.60
2017-08-19T21:41:26.037Z,12.60
2017-08-19T21:43:53.626Z,12.50
2017-08-19T21:46:21.324Z,12.60
2017-08-19T21:48:49.525Z,12.50
2017-08-19T21:51:17.156Z,12.60
2017-08-19T21:53:44.764Z,12.50
2017-08-19T21:56:12.357Z,12.50
2017-08-19T21:58:39.944Z,12.60
2017-08-19T22:01:07.516Z,12.50
2017-08-19T22:03:35.090Z,12.50
2017-08-19T22:06:02.689Z,12.50
2017-08-19T22:08:30.281Z,12.40
2017-08-19T22:10:57.826Z,12.40
2017-08-19T22:13:25.388Z,12.40
2017-08-19T22:15:52.934Z,12.30
2017-08-19T22:18:20.514Z,12.30
2017-08-19T22:20:48.058Z,12.20
2017-08-19T22:23:15.597Z,12.20
2017-08-19T22:25:43.163Z,12.10
2017-08-19T22:28:10.737Z,12.10
2017-08-19T22:30:38.576Z,12.10
2017-08-19T22:33:06.124Z,12.10
2017-08-19T22:35:33.671Z,12.00
2017-08-19T22:38:01.225Z,12.10
2017-08-19T22:40:29.531Z,13.70
2017-08-19T22:42:58.510Z,12.00
2017-08-19T22:45:26.182Z,12.00
2017-08-19T22:47:53.836Z,12.00
2017-08-19T22:50:21.451Z,12.00
2017-08-19T22:52:49.099Z,11.90
2017-08-19T22:55:16.677Z,11.90
2017-08-19T22:57:44.270Z,11.90
2017-08-19T23:00:11.885Z,11.80
2017-08-19T23:02:39.442Z,11.80
2017-08-19T23:05:07.377Z,11.80
2017-08-19T23:07:34.918Z,11.70
2017-08-19T23:10:03.285Z,11.60
2017-08-19T23:12:30.859Z,11.60
2017-08-19T23:14:58.396Z,11.50
2017-08-19T23:17:25.986Z,11.60
2017-08-19T23:19:53.531Z,11.50
2017-08-19T23:22:21.123Z,11.50
2017-08-19T23:24:48.699Z,11.50
2017-08-19T23:27:16.267Z,11.40
2017-08-19T23:29:43.820Z,11.40
2017-08-19T23:32:11.384Z,11.40
2017-08-19T23:34:38.961Z,11.40
2017-08-19T23:37:06.522Z,11.50
2017-08-19T23:39:34.089Z,11.30
2017-08-19T23:42:02.455Z,11.30
2017-08-19T23:44:30.012Z,11.30
2017-08-19T23:46:57.576Z,11.30
2017-08-19T23:49:25.121Z,11.30
2017-08-19T23:51:52.697Z,11.30
2017-08-19T23:54:20.226Z,11.30
2017-08-19T23:56:48.141Z,11.20
2017-08-19T23:59:15.676Z,11.20
